Time;durP1;ratioP1;P1;durP2;ratioP2;P2;SDS_P1;SDS_P2;PMS_P1;PMS_P2;Temp;Humidity;BMP_temperature;BMP_pressure;BME280_temperature;BME280_humidity;BME280_pressure;Samples;Min_cycle;Max_cycle;Signal;HPM_P1;HPM_P2
2021/05/04 00:02:21;;;;;;;6.35;3.60;;;;;;;4.64;76.32;98992.56;1719051;81;21390;-60
2021/05/04 00:04:49;;;;;;;4.17;3.50;;;;;;;4.62;76.47;98997.63;1719179;81;21129;-60
2021/05/04 00:07:16;;;;;;;3.70;3.22;;;;;;;4.59;76.66;98992.68;1730701;81;21231;-60
2021/05/04 00:09:45;;;;;;;3.75;3.45;;;;;;;4.54;76.82;98992.25;1727210;81;21550;-60
2021/05/04 00:12:12;;;;;;;3.72;3.42;;;;;;;4.51;77.07;98992.56;1727964;81;21120;-60
2021/05/04 00:14:40;;;;;;;3.62;3.02;;;;;;;4.49;77.22;98998.44;1727209;81;21393;-60
2021/05/04 00:17:08;;;;;;;3.20;2.90;;;;;;;4.45;77.41;98988.70;1735460;81;21184;-60
2021/05/04 00:19:37;;;;;;;4.60;3.50;;;;;;;4.45;77.61;98985.23;1727236;81;21148;-60
2021/05/04 00:22:04;;;;;;;3.00;2.72;;;;;;;4.44;77.69;98990.97;1727858;81;22131;-60
2021/05/04 00:24:32;;;;;;;3.35;3.05;;;;;;;4.43;77.78;98974.84;1706920;81;21158;-60
2021/05/04 00:26:59;;;;;;;2.85;2.60;;;;;;;4.44;77.85;98987.02;1721012;81;21615;-60
2021/05/04 00:29:27;;;;;;;3.45;2.90;;;;;;;4.43;77.99;98983.23;1720813;81;21173;-60
2021/05/04 00:31:54;;;;;;;3.10;2.80;;;;;;;4.43;78.07;98985.38;1720632;81;21463;-60
2021/05/04 00:34:22;;;;;;;3.58;3.27;;;;;;;4.42;78.05;98981.08;1726809;81;21121;-59
2021/05/04 00:36:49;;;;;;;3.17;2.87;;;;;;;4.40;78.17;98975.61;1725606;83;21167;-61
2021/05/04 00:39:16;;;;;;;3.55;2.92;;;;;;;4.40;78.36;98979.08;1688385;82;22226;-60
2021/05/04 00:41:44;;;;;;;3.77;3.15;;;;;;;4.39;78.28;98980.04;1688763;82;21171;-60
2021/05/04 00:44:11;;;;;;;4.33;3.55;;;;;;;4.37;78.37;98991.21;1700356;83;21537;-60
2021/05/04 00:46:39;;;;;;;5.20;3.52;;;;;;;4.36;78.35;98993.02;1698403;83;21100;-60
2021/05/04 00:49:06;;;;;;;5.12;3.90;;;;;;;4.33;78.47;99002.51;1688393;83;21133;-60
2021/05/04 00:51:34;;;;;;;4.80;3.70;;;;;;;4.31;78.58;99006.26;1698282;83;21396;-60
2021/05/04 00:54:02;;;;;;;4.20;3.70;;;;;;;4.31;78.65;99003.63;1697850;83;21096;-60
2021/05/04 00:56:30;;;;;;;3.83;3.37;;;;;;;4.29;78.68;99009.05;1698704;83;21157;-60
2021/05/04 00:58:58;;;;;;;4.28;3.47;;;;;;;4.25;78.80;99009.45;1698389;83;21157;-60
2021/05/04 01:01:25;;;;;;;4.42;3.70;;;;;;;4.22;78.96;99012.39;1698419;83;21176;-60
2021/05/04 01:03:53;;;;;;;4.60;3.75;;;;;;;4.18;79.11;99016.27;1698610;83;21394;-60
2021/05/04 01:06:20;;;;;;;4.12;3.45;;;;;;;4.16;79.42;99011.63;1698333;83;21094;-61
2021/05/04 01:08:47;;;;;;;3.55;3.17;;;;;;;4.15;79.66;99012.11;1698458;83;21152;-60
2021/05/04 01:11:15;;;;;;;3.52;3.22;;;;;;;4.19;79.73;99016.14;1698515;83;21081;-60
2021/05/04 01:13:48;;;;;;;5.17;3.00;;;;;;;4.26;79.74;99020.34;1698019;83;21153;-60
2021/05/04 01:16:16;;;;;;;8.38;3.22;;;;;;;4.31;79.69;99009.73;1698553;83;22299;-60
2021/05/04 01:18:43;;;;;;;4.03;3.45;;;;;;;4.33;79.62;99005.14;1698299;83;21190;-62
2021/05/04 01:21:12;;;;;;;4.03;3.55;;;;;;;4.35;79.59;99009.77;1698431;83;21169;-61
2021/05/04 01:23:39;;;;;;;5.33;3.40;;;;;;;;;;1698329;83;21185;-59
2021/05/04 01:26:06;;;;;;;5.15;4.22;;;;;;;4.38;79.65;99013.12;1697794;83;21171;-59
2021/05/04 01:28:34;;;;;;;6.62;4.37;;;;;;;4.42;79.65;99014.48;1698405;83;21209;-60
2021/05/04 01:31:01;;;;;;;6.53;5.08;;;;;;;4.44;79.55;99009.41;1698348;83;21133;-59
2021/05/04 01:33:28;;;;;;;5.85;5.05;;;;;;;4.45;79.49;99011.56;1698513;83;21077;-60
2021/05/04 01:35:56;;;;;;;6.35;4.92;;;;;;;4.44;79.49;99008.09;1698410;83;21212;-59
2021/05/04 01:38:23;;;;;;;6.92;5.65;;;;;;;4.43;79.51;99006.94;1698069;82;21137;-60
2021/05/04 01:40:51;;;;;;;7.35;5.22;;;;;;;4.41;79.49;99012.84;1697634;84;21381;-59
2021/05/04 01:43:19;;;;;;;5.45;4.20;;;;;;;4.35;79.52;99009.77;1692961;83;21034;-60
2021/05/04 01:45:46;;;;;;;4.92;4.30;;;;;;;4.30;79.76;99008.56;1692909;83;21010;-60
2021/05/04 01:48:14;;;;;;;4.87;4.15;;;;;;;4.27;79.92;99012.80;1692869;83;21178;-59
2021/05/04 01:50:42;;;;;;;6.67;4.78;;;;;;;4.21;80.12;99012.88;1692953;83;21185;-59
2021/05/04 01:53:09;;;;;;;6.53;5.05;;;;;;;4.20;80.31;99014.31;1693585;83;22818;-60
2021/05/04 01:55:36;;;;;;;8.13;5.22;;;;;;;4.19;80.39;99017.94;1692873;83;21591;-59
2021/05/04 01:58:04;;;;;;;6.20;4.58;;;;;;;4.20;80.51;99013.83;1692806;83;21038;-60
2021/05/04 02:00:31;;;;;;;6.47;4.95;;;;;;;4.23;80.50;99012.72;1708714;82;21095;-60
2021/05/04 02:02:58;;;;;;;5.12;4.35;;;;;;;4.23;80.46;99011.40;1703105;82;21239;-60
2021/05/04 02:05:26;;;;;;;6.58;5.45;;;;;;;4.21;80.45;99006.77;1693790;83;21365;-60
2021/05/04 02:07:53;;;;;;;5.33;4.22;;;;;;;4.16;80.42;99010.31;1692738;83;21106;-60
2021/05/04 02:10:21;;;;;;;5.08;4.30;;;;;;;4.11;80.57;99009.91;1692886;83;21111;-62
2021/05/04 02:12:48;;;;;;;5.55;3.85;;;;;;;4.07;80.55;99012.45;1692916;83;21177;-59
2021/05/04 02:15:16;;;;;;;5.87;4.47;;;;;;;4.02;80.56;99010.73;1693193;83;21165;-60
2021/05/04 02:17:44;;;;;;;5.62;3.87;;;;;;;3.98;80.67;99012.00;1692877;83;21248;-59
2021/05/04 02:20:12;;;;;;;4.87;4.17;;;;;;;3.98;80.79;99010.68;1692767;83;21181;-60
2021/05/04 02:22:40;;;;;;;6.20;4.67;;;;;;;3.98;80.75;99012.00;1692895;83;21217;-59
2021/05/04 02:25:10;;;;;;;5.80;4.42;;;;;;;3.97;80.66;99012.95;1694072;83;21176;-62
2021/05/04 02:27:37;;;;;;;5.37;4.25;;;;;;;3.93;80.64;99009.80;1719644;82;21474;-62
2021/05/04 02:30:07;;;;;;;5.35;3.90;;;;;;;3.91;80.70;99011.70;1656728;85;21438;-61
2021/05/04 02:32:37;;;;;;;4.42;3.77;;;;;;;3.92;80.69;99017.81;1689537;83;21111;-59
2021/05/04 02:35:05;;;;;;;4.10;3.35;;;;;;;3.91;80.69;99021.44;1705713;83;21537;-60
2021/05/04 02:37:33;;;;;;;5.85;3.27;;;;;;;3.89;80.71;99027.30;1677809;83;21524;-61
2021/05/04 02:40:01;;;;;;;3.60;3.00;;;;;;;3.88;80.78;99013.81;1683008;83;21134;-60
2021/05/04 02:42:30;;;;;;;3.95;2.90;;;;;;;3.88;80.83;99022.55;1682882;83;21468;-60
2021/05/04 02:44:57;;;;;;;3.42;2.85;;;;;;;3.88;80.92;99017.75;1715610;82;21026;-61
2021/05/04 02:47:25;;;;;;;4.03;2.98;;;;;;;3.90;80.99;99018.44;1712769;82;20948;-61
2021/05/04 02:49:52;;;;;;;3.67;2.70;;;;;;;3.93;80.98;99012.91;1712653;82;21134;-61
2021/05/04 02:52:20;;;;;;;3.37;2.45;;;;;;;3.97;80.90;99019.06;1715534;82;21218;-61
2021/05/04 02:54:48;;;;;;;4.05;3.00;;;;;;;3.98;80.71;99016.78;1702193;82;21379;-61
2021/05/04 02:57:16;;;;;;;4.37;3.08;;;;;;;4.01;80.61;99014.36;1687550;82;21150;-61
2021/05/04 02:59:45;;;;;;;5.28;2.70;;;;;;;4.04;80.54;99010.94;1700642;82;21019;-60
2021/05/04 03:02:12;;;;;;;3.83;2.47;;;;;;;4.12;80.53;99012.89;1700527;82;21047;-60
2021/05/04 03:04:41;;;;;;;2.83;2.60;;;;;;;4.22;80.29;99008.44;1719576;81;21235;-61
2021/05/04 03:07:08;;;;;;;3.55;2.98;;;;;;;4.31;79.95;99010.20;1720775;81;21355;-61
2021/05/04 03:09:37;;;;;;;2.92;2.62;;;;;;;4.40;79.77;99015.95;1720905;81;21154;-60
2021/05/04 03:12:06;;;;;;;3.37;2.75;;;;;;;4.52;79.51;99016.11;1722881;81;21137;-60
2021/05/04 03:14:34;;;;;;;3.65;3.22;;;;;;;4.66;78.89;99018.30;1719580;81;21641;-60
2021/05/04 03:17:01;;;;;;;3.90;2.70;;;;;;;4.83;78.50;99016.21;1720811;81;21099;-61
2021/05/04 03:19:30;;;;;;;3.02;2.55;;;;;;;5.02;77.98;99017.09;1720987;81;21346;-61
2021/05/04 03:21:58;;;;;;;2.87;2.58;;;;;;;5.21;77.28;99020.48;1720874;81;21171;-61
2021/05/04 03:24:25;;;;;;;2.42;1.80;;;;;;;5.39;76.83;99019.19;1720046;81;21192;-61
2021/05/04 03:26:53;;;;;;;2.60;2.33;;;;;;;5.58;76.00;99018.55;1720907;81;21074;-61
2021/05/04 03:29:20;;;;;;;3.12;2.65;;;;;;;5.77;75.56;99017.58;1720979;81;21070;-61
2021/05/04 03:31:49;;;;;;;3.47;2.52;;;;;;;5.97;75.00;99021.75;1721081;81;22122;-61
2021/05/04 03:34:16;;;;;;;2.75;2.47;;;;;;;6.15;74.12;99019.91;1722143;81;21271;-60
2021/05/04 03:36:44;;;;;;;2.58;2.15;;;;;;;6.18;73.28;99023.58;1720987;81;20972;-60
2021/05/04 03:39:11;;;;;;;3.87;2.90;;;;;;;6.12;72.82;99022.89;1720764;81;21224;-60
2021/05/04 03:41:39;;;;;;;3.75;2.67;;;;;;;5.99;72.93;99022.45;1721382;81;21147;-60
2021/05/04 03:44:06;;;;;;;4.10;3.20;;;;;;;5.86;73.07;99026.45;1723466;81;21439;-60
2021/05/04 03:46:35;;;;;;;3.40;2.52;;;;;;;5.75;73.42;99025.31;1720755;81;21108;-60
2021/05/04 03:49:03;;;;;;;3.70;3.30;;;;;;;5.70;73.73;99031.05;1720925;81;21133;-59
2021/05/04 03:51:31;;;;;;;3.83;3.40;;;;;;;5.66;73.66;99030.19;1721160;81;21149;-60
2021/05/04 03:53:58;;;;;;;4.70;3.45;;;;;;;5.61;74.14;99031.94;1723750;81;21186;-60
2021/05/04 03:56:26;;;;;;;4.70;3.50;;;;;;;5.70;74.31;99031.05;1722846;81;21201;-59
2021/05/04 03:58:54;;;;;;;4.28;3.72;;;;;;;5.88;74.28;99030.59;1720903;81;21176;-60
2021/05/04 04:01:21;;;;;;;3.83;2.98;;;;;;;6.14;74.07;99037.25;1702533;82;21569;-60
2021/05/04 04:03:50;;;;;;;4.05;2.80;;;;;;;6.47;73.52;99027.25;1703363;82;21010;-61
2021/05/04 04:06:17;;;;;;;6.00;4.50;;;;;;;6.86;72.23;99036.89;1703277;82;21122;-61
2021/05/04 04:08:47;;;;;;;6.50;3.37;;;;;;;7.24;71.57;99031.14;1702596;82;21281;-61
2021/05/04 04:11:15;;;;;;;4.62;3.67;;;;;;;7.58;70.25;99043.47;1702521;82;21012;-60
2021/05/04 04:13:45;;;;;;;3.65;2.60;;;;;;;7.87;69.41;99039.38;1702211;82;20951;-60
2021/05/04 04:16:12;;;;;;;3.92;3.27;;;;;;;8.15;67.74;99033.29;1701669;82;21206;-61
2021/05/04 04:18:39;;;;;;;3.17;2.60;;;;;;;8.40;66.81;99044.23;1702589;82;21162;-60
2021/05/04 04:21:07;;;;;;;5.03;3.00;;;;;;;8.68;66.01;99041.54;1702510;82;22264;-61
2021/05/04 04:23:34;;;;;;;2.95;2.60;;;;;;;9.02;65.17;99035.98;1684731;83;21179;-62
2021/05/04 04:26:02;;;;;;;4.12;2.83;;;;;;;9.28;64.50;99045.03;1700946;82;21079;-61
2021/05/04 04:28:29;;;;;;;3.40;2.83;;;;;;;9.38;63.16;99037.68;1700692;82;21142;-60
2021/05/04 04:30:56;;;;;;;4.80;3.02;;;;;;;9.36;62.56;99044.97;1700663;82;21205;-61
2021/05/04 04:33:25;;;;;;;4.33;2.90;;;;;;;9.45;62.51;99048.42;1700597;82;22400;-60
2021/05/04 04:35:53;;;;;;;2.92;2.52;;;;;;;9.70;62.25;99048.61;1770871;80;20890;-60
2021/05/04 04:38:20;;;;;;;4.12;3.10;;;;;;;9.93;60.92;99042.31;1741072;80;21140;-60
2021/05/04 04:40:47;;;;;;;3.33;2.90;;;;;;;9.99;60.42;99052.74;1741184;80;21108;-60
2021/05/04 04:43:15;;;;;;;3.90;3.52;;;;;;;9.93;60.15;99056.93;1740599;80;21152;-60
2021/05/04 04:45:43;;;;;;;3.45;3.02;;;;;;;9.81;59.92;99057.02;1741194;80;21431;-60
2021/05/04 04:48:10;;;;;;;2.95;2.75;;;;;;;9.69;60.08;99058.43;1741051;80;21013;-61
2021/05/04 04:50:38;;;;;;;3.17;2.75;;;;;;;9.61;60.10;99066.94;1741134;80;21001;-60
2021/05/04 04:53:05;;;;;;;4.42;3.02;;;;;;;9.56;60.24;99066.14;1740729;80;21571;-60
2021/05/04 04:55:32;;;;;;;3.42;2.95;;;;;;;9.68;60.22;99058.09;1741208;80;21073;-61
2021/05/04 04:58:00;;;;;;;3.58;2.85;;;;;;;10.00;60.17;99073.51;1741142;80;21273;-61
2021/05/04 05:00:29;;;;;;;3.87;2.87;;;;;;;10.36;59.24;99071.94;1740978;80;21065;-62
2021/05/04 05:02:57;;;;;;;3.98;2.70;;;;;;;10.74;58.51;99072.25;1739958;80;21159;-61
2021/05/04 05:05:24;;;;;;;4.00;3.25;;;;;;;11.20;57.22;99066.80;1741061;80;21048;-61
2021/05/04 05:07:51;;;;;;;3.72;2.75;;;;;;;11.64;55.97;99065.74;1741168;80;21119;-61
2021/05/04 05:10:19;;;;;;;3.27;2.52;;;;;;;12.05;54.75;99067.85;1741179;80;22128;-61
2021/05/04 05:12:47;;;;;;;4.08;2.87;;;;;;;12.44;54.13;99063.41;1740631;80;21171;-62
2021/05/04 05:15:14;;;;;;;3.05;2.62;;;;;;;12.94;53.15;99069.36;1741344;80;21128;-61
2021/05/04 05:17:42;;;;;;;3.58;2.80;;;;;;;13.27;51.12;99073.59;1741127;80;21156;-62
2021/05/04 05:20:11;;;;;;;2.85;2.65;;;;;;;13.47;50.50;99069.20;1741109;80;21117;-62
2021/05/04 05:22:38;;;;;;;3.52;2.87;;;;;;;13.68;49.41;99066.09;1740957;80;21350;-62
2021/05/04 05:25:07;;;;;;;4.05;3.20;;;;;;;13.89;49.21;99069.47;1722599;80;21033;-62
2021/05/04 05:27:34;;;;;;;3.45;3.02;;;;;;;14.03;48.01;99068.96;1741419;80;21128;-61
2021/05/04 05:30:08;;;;;;;4.62;2.90;;;;;;;14.20;47.43;99076.94;1741159;80;21005;-62
2021/05/04 05:32:36;;;;;;;4.05;3.08;;;;;;;14.32;46.94;99068.64;1743028;80;21570;-61
2021/05/04 05:35:05;;;;;;;3.27;2.77;;;;;;;14.49;46.89;99069.92;1736982;80;21350;-62
2021/05/04 05:37:32;;;;;;;2.45;2.25;;;;;;;14.79;46.57;99068.97;1741018;80;20941;-61
2021/05/04 05:40:00;;;;;;;3.45;2.83;;;;;;;15.06;45.96;99073.80;1741039;80;21001;-62
2021/05/04 05:42:27;;;;;;;3.00;2.77;;;;;;;15.23;45.26;99076.33;1732745;80;21191;-60
2021/05/04 05:44:54;;;;;;;2.92;2.58;;;;;;;15.53;45.16;99079.37;1712498;81;21185;-61
2021/05/04 05:47:22;;;;;;;3.25;2.95;;;;;;;16.00;44.90;99078.98;1710605;82;21360;-62
2021/05/04 05:49:49;;;;;;;2.90;2.52;;;;;;;16.34;42.71;99079.08;1710424;81;21142;-61
2021/05/04 05:52:16;;;;;;;3.33;2.90;;;;;;;16.15;43.06;99082.70;1710490;82;21595;-62
2021/05/04 05:54:45;;;;;;;5.47;2.60;;;;;;;16.01;42.38;99083.28;1712379;81;21074;-63
2021/05/04 05:57:13;;;;;;;2.55;2.30;;;;;;;15.92;42.92;99086.75;1713783;82;21201;-68
2021/05/04 05:59:41;;;;;;;3.62;2.75;;;;;;;15.98;42.78;99085.08;1705927;82;21392;-61
2021/05/04 06:02:10;;;;;;;3.47;2.65;;;;;;;15.96;42.80;99093.84;1705858;82;21671;-61
2021/05/04 06:04:38;;;;;;;2.98;2.33;;;;;;;15.70;42.81;99088.59;1705754;82;21078;-62
2021/05/04 06:07:05;;;;;;;2.98;2.67;;;;;;;15.38;43.42;99094.35;1706035;82;20955;-62
2021/05/04 06:09:32;;;;;;;3.60;2.35;;;;;;;15.26;43.96;99093.33;1727471;82;21115;-63
2021/05/04 06:12:01;;;;;;;3.67;2.33;;;;;;;15.16;44.23;99093.77;1710631;81;21466;-64
2021/05/04 06:14:30;;;;;;;2.27;2.08;;;;;;;15.22;44.45;99086.25;1736045;80;21593;-64
2021/05/04 06:16:59;;;;;;;2.87;2.40;;;;;;;15.56;44.70;99092.37;1736639;80;21072;-64
2021/05/04 06:19:27;;;;;;;2.45;2.25;;;;;;;16.12;43.81;99082.61;1738390;80;21025;-61
2021/05/04 06:21:54;;;;;;;4.30;2.42;;;;;;;16.50;42.58;99088.76;1740373;80;21057;-63
2021/05/04 06:24:22;;;;;;;3.58;2.50;;;;;;;16.64;42.05;99082.80;1704875;81;21134;-60
2021/05/04 06:26:50;;;;;;;3.40;1.77;;;;;;;16.76;41.36;99074.36;1728970;80;21128;-65
2021/05/04 06:29:18;;;;;;;2.10;1.80;;;;;;;16.99;41.28;99067.84;1739670;80;20998;-66
2021/05/04 06:31:48;;;;;;;2.27;1.80;;;;;;;17.31;40.31;99064.53;1711345;82;21154;-64
2021/05/04 06:34:14;;;;;;;3.02;1.62;;;;;;;17.55;39.95;99058.78;1705265;81;21175;-65
2021/05/04 06:36:42;;;;;;;2.70;2.50;;;;;;;17.75;39.62;99055.36;1708598;81;21384;-62
2021/05/04 06:39:09;;;;;;;3.20;2.58;;;;;;;18.03;39.56;99054.25;1713186;81;21086;-66
2021/05/04 06:41:39;;;;;;;2.08;1.87;;;;;;;18.42;38.96;99059.58;1728702;81;21165;-56
2021/05/04 06:44:06;;;;;;;2.10;1.90;;;;;;;18.52;38.30;99049.09;1727911;81;21669;-65
2021/05/04 06:46:34;;;;;;;2.45;1.60;;;;;;;18.67;37.00;99043.24;1729943;81;21175;-67
2021/05/04 06:49:01;;;;;;;2.00;1.75;;;;;;;18.66;37.73;99041.09;1710602;81;21392;-66
2021/05/04 06:51:29;;;;;;;3.25;2.10;;;;;;;18.83;37.45;99043.91;1728074;81;21118;-64
2021/05/04 06:53:57;;;;;;;2.40;2.10;;;;;;;18.93;36.74;99048.19;1730408;81;21060;-66
2021/05/04 06:56:25;;;;;;;2.00;1.90;;;;;;;18.78;36.87;99046.48;1728658;81;21198;-62
2021/05/04 06:58:52;;;;;;;4.25;1.67;;;;;;;18.43;36.59;99039.14;1731394;81;20944;-65
2021/05/04 07:01:20;;;;;;;2.25;1.92;;;;;;;17.94;36.93;99046.18;1731400;81;21197;-61
2021/05/04 07:03:47;;;;;;;2.77;2.00;;;;;;;17.71;37.69;99048.77;1730437;81;21582;-63
2021/05/04 07:06:15;;;;;;;3.22;1.82;;;;;;;17.58;37.72;99042.20;1728058;81;21547;-61
2021/05/04 07:08:43;;;;;;;2.77;1.62;;;;;;;17.33;38.37;99054.89;1728971;81;21065;-58
2021/05/04 07:11:10;;;;;;;1.92;1.55;;;;;;;17.23;38.62;99057.55;1729344;81;21156;-60
2021/05/04 07:13:40;;;;;;;1.77;1.67;;;;;;;17.33;38.52;99050.86;1728093;81;21444;-59
2021/05/04 07:16:08;;;;;;;1.98;1.50;;;;;;;17.42;37.95;99057.05;1728093;81;21187;-62
2021/05/04 07:18:35;;;;;;;2.02;1.45;;;;;;;17.38;38.11;99057.20;1731349;81;21121;-60
2021/05/04 07:21:08;;;;;;;5.15;4.62;;;;;;;17.25;37.50;99059.52;1728742;81;21061;-62
2021/05/04 07:23:37;;;;;;;2.20;2.00;;;;;;;17.09;38.72;99071.36;1729185;81;20948;-58
2021/05/04 07:26:05;;;;;;;3.47;3.27;;;;;;;16.91;38.66;99072.16;1729073;81;21383;-63
2021/05/04 07:28:32;;;;;;;2.65;2.05;;;;;;;16.88;38.68;99064.53;1728938;81;21160;-62
2021/05/04 07:30:59;;;;;;;1.70;1.52;;;;;;;17.01;38.58;99068.44;1659342;84;21061;-63
2021/05/04 07:33:35;;;;;;;1.77;1.40;;;;;;;17.34;38.02;99065.95;1689732;83;21536;-62
2021/05/04 07:36:03;;;;;;;1.37;1.20;;;;;;;17.63;37.24;99053.11;1689209;84;21247;-62
2021/05/04 07:38:31;;;;;;;1.50;1.40;;;;;;;17.86;36.43;99045.15;1688673;83;22223;-60
2021/05/04 07:40:59;;;;;;;1.82;1.25;;;;;;;17.97;36.36;99056.50;1718503;81;21032;-59
2021/05/04 07:43:26;;;;;;;1.35;1.22;;;;;;;17.98;36.46;99055.98;1726207;83;21087;-69
2021/05/04 07:45:54;;;;;;;1.30;1.20;;;;;;;18.06;36.58;99052.45;1723727;81;21130;-63
2021/05/04 07:48:23;;;;;;;1.57;1.40;;;;;;;18.00;35.49;99035.03;1719311;82;21077;-63
2021/05/04 07:50:51;;;;;;;1.30;1.20;;;;;;;18.00;35.49;99035.03;1707829;82;21214;-60
2021/05/04 07:53:18;;;;;;;1.85;1.10;;;;;;;17.68;35.85;99039.80;1726584;81;21002;-61
2021/05/04 07:55:48;;;;;;;1.00;0.95;;;;;;;17.73;36.13;99042.11;1726223;81;21001;-60
2021/05/04 07:58:16;;;;;;;1.30;1.10;;;;;;;17.97;36.25;99035.48;1726195;81;21146;-61
2021/05/04 08:00:43;;;;;;;1.20;1.10;;;;;;;17.97;36.25;99035.48;1709614;82;21211;-63
2021/05/04 08:03:13;;;;;;;4.03;1.02;;;;;;;18.15;35.62;99032.22;1712800;82;21396;-61
2021/05/04 08:05:43;;;;;;;1.98;1.20;;;;;;;18.17;33.85;99032.80;1709508;82;21125;-61
2021/05/04 08:08:12;;;;;;;2.17;1.32;;;;;;;17.88;33.88;99029.08;1725665;81;21132;-61
2021/05/04 08:13:24;;;;;;;1.05;0.93;;;;;;;17.68;34.26;99029.87;1856763;76;23250;-64
2021/05/04 08:15:53;;;;;;;3.50;1.35;;;;;;;17.59;33.28;99029.07;1798533;77;21056;-63
2021/05/04 08:18:21;;;;;;;1.75;1.17;;;;;;;17.42;33.80;99025.30;1794769;77;21368;-61
2021/05/04 08:20:53;;;;;;;2.10;0.80;;;;;;;17.52;33.25;99028.30;1821561;77;20993;-59
2021/05/04 08:23:19;;;;;;;2.20;1.10;;;;;;;17.79;33.87;99035.01;1801923;77;21000;-67
2021/05/04 08:25:46;;;;;;;2.77;1.75;;;;;;;18.23;33.07;99031.06;1787009;78;22328;-67
2021/05/04 08:28:14;;;;;;;2.05;1.17;;;;;;;18.60;32.43;99024.51;1748287;80;21478;-65
2021/05/04 08:30:41;;;;;;;1.82;1.00;;;;;;;19.11;31.97;99022.45;1727998;80;21207;-62
2021/05/04 08:33:13;;;;;;;1.40;1.30;;;;;;;19.52;31.69;99019.63;1734231;80;21467;-63
2021/05/04 08:35:41;;;;;;;1.15;1.05;;;;;;;19.88;31.34;99017.61;1734358;81;21005;-64
2021/05/04 08:38:09;;;;;;;2.90;1.95;;;;;;;19.94;30.42;99020.18;1734247;80;21187;-62
2021/05/04 08:40:37;;;;;;;2.45;1.80;;;;;;;19.50;31.08;99023.06;1734090;80;21585;-62
2021/05/04 08:43:05;;;;;;;2.15;1.57;;;;;;;19.13;31.45;99018.19;1734090;81;21400;-63
2021/05/04 08:45:41;;;;;;;1.85;1.32;;;;;;;19.02;32.43;99017.97;1734201;80;21001;-63
2021/05/04 08:48:09;;;;;;;3.40;1.50;;;;;;;19.36;32.11;99010.06;1748701;80;21123;-63
2021/05/04 08:50:39;;;;;;;1.82;1.60;;;;;;;19.70;31.01;99011.36;1734111;80;21135;-62
2021/05/04 08:53:06;;;;;;;4.03;1.30;;;;;;;19.53;30.12;99013.67;1755559;81;21143;-63
2021/05/04 08:55:34;;;;;;;1.80;1.60;;;;;;;19.20;30.29;99013.48;1743903;81;21410;-62
2021/05/04 08:58:03;;;;;;;2.92;1.37;;;;;;;18.80;30.24;99014.73;1751556;81;21027;-64
2021/05/04 09:00:33;;;;;;;2.67;1.67;;;;;;;18.25;31.10;99007.45;1733418;81;21572;-63
2021/05/04 09:03:08;;;;;;;2.12;1.32;;;;;;;17.76;31.84;99011.25;1755659;81;21084;-64
2021/05/04 09:05:47;;;;;;;2.02;1.70;;;;;;;17.45;33.00;99018.95;1756518;80;20977;-63
2021/05/04 09:11:34;;;;;;;2.30;2.02;;;;;;;17.28;33.30;99028.13;1755210;81;20530;-65
2021/05/04 09:16:41;;;;;;;3.22;2.77;;;;;;;16.26;33.76;99032.37;1736749;81;21641;-65
2021/05/04 09:19:14;;;;;;;2.70;2.50;;;;;;;15.60;34.55;99032.74;1735897;81;21032;-63
2021/05/04 09:21:38;;;;;;;3.52;1.62;;;;;;;15.21;36.03;99024.81;1725617;81;21447;-63
2021/05/04 09:24:44;;;;;;;2.02;1.32;;;;;;;15.22;37.21;99022.45;1750439;80;21580;-65
2021/05/04 09:27:16;;;;;;;2.25;1.42;;;;;;;15.68;37.31;99016.92;1734060;81;21087;-65
2021/05/04 09:29:53;;;;;;;1.85;1.70;;;;;;;16.40;35.24;99013.80;1726186;81;28545;-65
2021/05/04 09:32:24;;;;;;;2.10;1.80;;;;;;;16.64;34.43;99012.98;1726121;80;21507;-65
2021/05/04 09:35:06;;;;;;;2.12;1.92;;;;;;;16.58;33.93;99013.89;1736882;81;21470;-66
2021/05/04 09:37:39;;;;;;;2.12;1.85;;;;;;;16.30;34.45;99026.86;1732983;80;21207;-66
2021/05/04 09:40:27;;;;;;;2.35;1.90;;;;;;;15.98;34.55;99028.74;1726027;80;21025;-63
2021/05/04 09:43:08;;;;;;;1.80;1.65;;;;;;;15.55;34.42;99014.30;1730396;80;21595;-65
2021/05/04 09:45:54;;;;;;;4.20;1.75;;;;;;;14.99;34.84;99015.41;1736774;81;21116;-65
2021/05/04 09:48:32;;;;;;;2.50;1.52;;;;;;;14.54;35.79;99018.44;1726012;80;22394;-63
2021/05/04 09:51:09;;;;;;;1.77;1.55;;;;;;;14.14;36.67;99017.55;1725926;81;21016;-64
2021/05/04 09:56:11;;;;;;;2.05;1.17;;;;;;;14.34;37.03;99008.26;1725862;80;21076;-63
2021/05/04 09:58:45;;;;;;;2.62;1.50;;;;;;;14.53;36.46;99016.27;1725948;81;21140;-63
2021/05/04 10:01:18;;;;;;;3.33;1.50;;;;;;;14.67;36.54;99009.89;1725939;81;22307;-65
2021/05/04 10:03:47;;;;;;;1.90;1.50;;;;;;;14.66;37.06;99002.05;1726041;81;21119;-63
2021/05/04 10:06:16;;;;;;;1.52;1.32;;;;;;;15.05;37.07;99000.64;1743147;80;21077;-63
2021/05/04 10:08:45;;;;;;;1.62;1.37;;;;;;;15.31;36.18;99006.42;1750255;81;21090;-63
2021/05/04 10:11:17;;;;;;;1.50;1.32;;;;;;;15.22;35.90;99007.20;1750362;81;21213;-63
2021/05/04 10:13:45;;;;;;;1.30;1.20;;;;;;;15.02;36.08;99010.94;1726249;80;22356;-62
2021/05/04 10:16:15;;;;;;;2.62;1.57;;;;;;;14.83;36.03;99008.63;1745679;80;21224;-63
2021/05/04 10:18:42;;;;;;;1.57;1.42;;;;;;;14.69;36.15;98998.45;1806102;77;21205;-63
2021/05/04 10:21:10;;;;;;;2.65;1.15;;;;;;;14.64;36.38;98997.42;1780693;77;21174;-60
2021/05/04 10:23:41;;;;;;;1.98;1.52;;;;;;;14.50;36.88;99004.63;1802472;77;20989;-63
2021/05/04 10:26:14;;;;;;;4.72;2.75;;;;;;;14.37;37.44;99000.63;1795215;77;21184;-62
2021/05/04 10:28:40;;;;;;;1.65;1.55;;;;;;;14.29;38.26;99007.48;1799565;77;21111;-62
2021/05/04 10:31:08;;;;;;;2.12;1.47;;;;;;;14.32;38.33;99007.11;1742365;80;21548;-63
2021/05/04 10:33:40;;;;;;;1.67;1.40;;;;;;;14.51;37.51;99001.45;1761934;81;21025;-65
2021/05/04 10:36:32;;;;;;;1.90;1.27;;;;;;;14.89;37.15;98997.61;1736628;82;20939;-65
2021/05/04 10:39:01;;;;;;;2.67;1.15;;;;;;;15.26;36.33;98990.98;1752269;79;21201;-64
2021/05/04 10:41:30;;;;;;;1.25;1.05;;;;;;;15.33;35.49;98999.82;1739600;80;21646;-64
2021/05/04 10:44:05;;;;;;;2.22;1.27;;;;;;;15.20;35.83;98993.17;1688347;80;21251;-63
2021/05/04 10:46:39;;;;;;;1.67;1.32;;;;;;;15.25;36.12;98996.03;1750558;80;21062;-62
2021/05/04 10:49:19;;;;;;;1.98;1.40;;;;;;;15.34;35.57;98992.09;1759463;79;21131;-63
2021/05/04 10:51:55;;;;;;;2.17;1.57;;;;;;;15.32;35.63;98990.66;1769298;79;21264;-64
2021/05/04 10:54:24;;;;;;;4.62;1.30;;;;;;;15.33;35.63;98990.44;1753627;79;21000;-63
2021/05/04 10:57:02;;;;;;;1.30;1.20;;;;;;;15.19;35.16;98986.69;1763232;79;21227;-61
2021/05/04 10:59:44;;;;;;;3.42;1.57;;;;;;;15.02;35.09;98986.32;1754667;79;21180;-60
2021/05/04 11:02:20;;;;;;;3.80;1.22;;;;;;;15.09;35.73;98983.64;1748707;79;21065;-62
2021/05/04 11:04:49;;;;;;;2.45;2.00;;;;;;;15.30;35.63;98973.44;1753573;79;22262;-61
2021/05/04 11:08:00;;;;;;;2.58;1.37;;;;;;;15.48;35.37;98971.45;1752826;79;21062;-60
2021/05/04 11:10:29;;;;;;;3.62;1.40;;;;;;;15.59;34.62;98974.78;1757702;79;21595;-63
2021/05/04 11:12:57;;;;;;;1.52;0.90;;;;;;;15.47;33.69;98977.84;1733470;82;21021;-60
2021/05/04 11:15:27;;;;;;;1.70;1.30;;;;;;;15.37;33.93;98974.77;1723701;82;20922;-57
2021/05/04 11:17:54;;;;;;;2.77;1.25;;;;;;;15.33;33.93;98968.17;1751702;80;22078;-60
2021/05/04 11:20:37;;;;;;;2.67;1.27;;;;;;;15.42;34.57;98968.25;1716319;83;20935;-64
2021/05/04 11:23:08;;;;;;;1.82;1.30;;;;;;;15.62;34.19;98958.27;1701745;83;21442;-62
2021/05/04 11:25:40;;;;;;;1.30;1.20;;;;;;;15.78;33.52;98953.74;1779080;79;21123;-61
2021/05/04 11:28:08;;;;;;;2.45;1.07;;;;;;;15.76;33.46;98947.78;1712312;82;20940;-62
2021/05/04 11:30:41;;;;;;;1.10;1.00;;;;;;;15.79;33.13;98953.23;1758088;80;21408;-64
2021/05/04 11:33:27;;;;;;;0.90;0.90;;;;;;;15.71;32.34;98963.70;1746845;80;21008;-61
2021/05/04 11:35:56;;;;;;;0.95;0.90;;;;;;;15.52;31.63;98948.53;1779107;79;20981;-61
2021/05/04 11:38:25;;;;;;;1.37;0.80;;;;;;;15.23;31.88;98945.86;1781483;80;20996;-66
2021/05/04 11:40:52;;;;;;;1.25;1.02;;;;;;;15.02;32.82;98940.78;1780974;80;21211;-65
2021/05/04 11:43:21;;;;;;;1.95;1.10;;;;;;;14.92;33.46;98938.24;1726773;81;21205;-63
2021/05/04 11:45:48;;;;;;;1.50;1.17;;;;;;;14.92;34.17;98933.72;1720336;82;21040;-59
2021/05/04 11:48:17;;;;;;;2.85;1.40;;;;;;;14.99;33.96;98941.75;1714506;83;21112;-64
2021/05/04 11:50:50;;;;;;;3.60;1.22;;;;;;;14.96;33.67;98931.45;1707384;83;21150;-60
2021/05/04 11:53:18;;;;;;;2.33;1.70;;;;;;;14.91;33.57;98924.56;1731856;82;21072;-64
2021/05/04 11:55:57;;;;;;;1.80;1.12;;;;;;;14.92;33.79;98914.97;1733871;81;21336;-59
2021/05/04 11:58:27;;;;;;;2.98;1.37;;;;;;;15.02;33.48;98923.88;1731643;82;21147;-62